sensor_id;sensor_type;location;lat;lon;timestamp;pressure;altitude;pressure_sealevel;temperature;humidity
45040;BME280;30778;53.574;7.770;2023-02-21T00:02:41;101470.97;;;6.97;56.23
45040;BME280;30778;53.574;7.770;2023-02-21T00:05:25;101471.88;;;6.95;56.32
45040;BME280;30778;53.574;7.770;2023-02-21T00:08:09;101485.66;;;7.00;56.11
45040;BME280;30778;53.574;7.770;2023-02-21T00:10:53;101479.38;;;7.13;55.58
45040;BME280;30778;53.574;7.770;2023-02-21T00:13:37;101470.19;;;6.94;56.18
45040;BME280;30778;53.574;7.770;2023-02-21T00:16:21;101474.31;;;7.07;56.30
45040;BME280;30778;53.574;7.770;2023-02-21T00:19:06;101486.00;;;6.78;57.28
45040;BME280;30778;53.574;7.770;2023-02-21T00:21:50;101472.94;;;6.81;57.10
45040;BME280;30778;53.574;7.770;2023-02-21T00:24:34;101475.38;;;6.94;56.70
45040;BME280;30778;53.574;7.770;2023-02-21T00:27:26;101476.56;;;6.71;57.63
45040;BME280;30778;53.574;7.770;2023-02-21T00:30:11;101476.91;;;7.07;56.69
45040;BME280;30778;53.574;7.770;2023-02-21T00:32:56;101478.66;;;7.05;57.36
45040;BME280;30778;53.574;7.770;2023-02-21T00:35:40;101492.88;;;6.79;58.15
45040;BME280;30778;53.574;7.770;2023-02-21T00:38:27;101496.72;;;6.54;59.40
45040;BME280;30778;53.574;7.770;2023-02-21T00:41:13;101499.00;;;6.77;59.19
45040;BME280;30778;53.574;7.770;2023-02-21T00:43:58;101498.28;;;6.67;59.31
45040;BME280;30778;53.574;7.770;2023-02-21T00:46:42;101494.22;;;6.46;59.92
45040;BME280;30778;53.574;7.770;2023-02-21T00:49:29;101498.66;;;6.36;59.80
45040;BME280;30778;53.574;7.770;2023-02-21T00:52:15;101498.53;;;6.45;59.91
45040;BME280;30778;53.574;7.770;2023-02-21T00:55:00;101495.69;;;6.64;59.40
45040;BME280;30778;53.574;7.770;2023-02-21T00:57:43;101489.78;;;6.53;59.49
45040;BME280;30778;53.574;7.770;2023-02-21T01:00:28;101496.66;;;6.60;59.62
45040;BME280;30778;53.574;7.770;2023-02-21T01:03:12;101488.16;;;6.45;59.54
45040;BME280;30778;53.574;7.770;2023-02-21T01:05:56;101495.34;;;6.22;60.64
45040;BME280;30778;53.574;7.770;2023-02-21T01:08:45;101499.06;;;6.74;59.00
45040;BME280;30778;53.574;7.770;2023-02-21T01:11:31;101495.41;;;6.16;60.65
45040;BME280;30778;53.574;7.770;2023-02-21T01:14:16;101502.97;;;6.39;60.00
45040;BME280;30778;53.574;7.770;2023-02-21T01:17:00;101496.97;;;6.32;60.20
45040;BME280;30778;53.574;7.770;2023-02-21T01:19:45;101509.34;;;6.08;60.51
45040;BME280;30778;53.574;7.770;2023-02-21T01:22:32;101506.66;;;6.16;60.67
45040;BME280;30778;53.574;7.770;2023-02-21T01:25:19;101507.72;;;5.98;60.79
45040;BME280;30778;53.574;7.770;2023-02-21T01:28:03;101501.41;;;6.21;60.24
45040;BME280;30778;53.574;7.770;2023-02-21T01:30:52;101507.06;;;6.57;59.09
45040;BME280;30778;53.574;7.770;2023-02-21T01:33:40;101508.69;;;6.64;59.05
45040;BME280;30778;53.574;7.770;2023-02-21T01:36:25;101513.03;;;6.62;59.33
45040;BME280;30778;53.574;7.770;2023-02-21T01:39:12;101513.22;;;6.48;59.50
45040;BME280;30778;53.574;7.770;2023-02-21T01:42:00;101502.16;;;6.35;59.59
45040;BME280;30778;53.574;7.770;2023-02-21T01:44:46;101512.56;;;6.32;60.16
45040;BME280;30778;53.574;7.770;2023-02-21T01:47:32;101514.59;;;6.02;60.61
45040;BME280;30778;53.574;7.770;2023-02-21T01:53:12;101511.00;;;6.16;61.04
45040;BME280;30778;53.574;7.770;2023-02-21T01:55:59;101498.94;;;6.12;60.69
45040;BME280;30778;53.574;7.770;2023-02-21T01:58:48;101498.88;;;6.18;60.89
45040;BME280;30778;53.574;7.770;2023-02-21T02:01:45;101500.47;;;6.28;60.57
45040;BME280;30778;53.574;7.770;2023-02-21T02:04:31;101507.63;;;6.07;61.51
45040;BME280;30778;53.574;7.770;2023-02-21T02:07:16;101506.00;;;5.97;61.84
45040;BME280;30778;53.574;7.770;2023-02-21T02:10:00;101505.63;;;6.34;60.68
45040;BME280;30778;53.574;7.770;2023-02-21T02:15:58;101516.31;;;6.03;61.53
45040;BME280;30778;53.574;7.770;2023-02-21T02:27:36;101497.75;;;6.42;59.96
45040;BME280;30778;53.574;7.770;2023-02-21T02:33:32;101502.09;;;6.38;60.61
45040;BME280;30778;53.574;7.770;2023-02-21T02:44:59;101519.06;;;5.90;62.52
45040;BME280;30778;53.574;7.770;2023-02-21T02:47:30;101512.75;;;6.12;61.76
45040;BME280;30778;53.574;7.770;2023-02-21T02:50:03;101510.44;;;6.65;60.16
45040;BME280;30778;53.574;7.770;2023-02-21T02:52:30;101520.38;;;6.27;61.31
45040;BME280;30778;53.574;7.770;2023-02-21T02:55:04;101525.34;;;6.47;60.60
45040;BME280;30778;53.574;7.770;2023-02-21T02:57:33;101519.69;;;6.12;61.33
45040;BME280;30778;53.574;7.770;2023-02-21T03:00:07;101525.22;;;6.58;60.51
45040;BME280;30778;53.574;7.770;2023-02-21T03:05:26;101532.34;;;6.42;60.96
45040;BME280;30778;53.574;7.770;2023-02-21T03:08:03;101534.16;;;6.34;61.48
45040;BME280;30778;53.574;7.770;2023-02-21T03:13:52;101542.69;;;6.44;61.03
45040;BME280;30778;53.574;7.770;2023-02-21T03:16:28;101541.13;;;6.32;61.21
45040;BME280;30778;53.574;7.770;2023-02-21T03:21:40;101557.31;;;6.53;60.62
45040;BME280;30778;53.574;7.770;2023-02-21T03:24:07;101557.25;;;6.60;60.70
45040;BME280;30778;53.574;7.770;2023-02-21T03:26:39;101559.09;;;6.49;60.58
45040;BME280;30778;53.574;7.770;2023-02-21T03:29:27;101562.56;;;6.49;60.53
45040;BME280;30778;53.574;7.770;2023-02-21T03:31:59;101568.38;;;6.70;60.08
45040;BME280;30778;53.574;7.770;2023-02-21T03:34:43;101565.56;;;6.85;59.59
45040;BME280;30778;53.574;7.770;2023-02-21T03:40:06;101568.38;;;6.70;60.12
45040;BME280;30778;53.574;7.770;2023-02-21T03:42:33;101561.72;;;6.46;60.69
45040;BME280;30778;53.574;7.770;2023-02-21T03:44:59;101573.91;;;6.42;60.63
45040;BME280;30778;53.574;7.770;2023-02-21T03:47:25;101574.13;;;6.18;61.26
45040;BME280;30778;53.574;7.770;2023-02-21T03:49:51;101578.31;;;6.34;61.00
45040;BME280;30778;53.574;7.770;2023-02-21T03:52:17;101583.16;;;6.65;59.88
45040;BME280;30778;53.574;7.770;2023-02-21T03:54:42;101586.94;;;6.36;60.87
45040;BME280;30778;53.574;7.770;2023-02-21T03:57:13;101580.13;;;6.23;60.78
45040;BME280;30778;53.574;7.770;2023-02-21T03:59:43;101580.84;;;6.39;60.37
45040;BME280;30778;53.574;7.770;2023-02-21T04:02:08;101594.16;;;6.06;61.33
45040;BME280;30778;53.574;7.770;2023-02-21T04:04:34;101586.09;;;6.36;60.77
45040;BME280;30778;53.574;7.770;2023-02-21T04:07:16;101589.59;;;6.30;60.92
45040;BME280;30778;53.574;7.770;2023-02-21T04:09:46;101578.38;;;6.25;61.06
45040;BME280;30778;53.574;7.770;2023-02-21T04:12:17;101584.22;;;6.48;60.40
45040;BME280;30778;53.574;7.770;2023-02-21T04:14:43;101578.38;;;6.25;60.76
45040;BME280;30778;53.574;7.770;2023-02-21T04:17:08;101579.94;;;6.44;60.07
45040;BME280;30778;53.574;7.770;2023-02-21T04:19:34;101576.69;;;6.22;61.11
45040;BME280;30778;53.574;7.770;2023-02-21T04:22:03;101585.47;;;6.11;61.44
45040;BME280;30778;53.574;7.770;2023-02-21T04:24:29;101573.06;;;6.40;60.43
45040;BME280;30778;53.574;7.770;2023-02-21T04:26:55;101577.47;;;6.27;61.03
45040;BME280;30778;53.574;7.770;2023-02-21T04:29:22;101582.81;;;6.14;61.69
45040;BME280;30778;53.574;7.770;2023-02-21T04:31:47;101574.13;;;6.18;61.09
45040;BME280;30778;53.574;7.770;2023-02-21T04:34:15;101570.66;;;6.20;61.14
45040;BME280;30778;53.574;7.770;2023-02-21T04:36:42;101572.22;;;6.37;60.88
45040;BME280;30778;53.574;7.770;2023-02-21T04:39:08;101565.34;;;6.33;60.68
45040;BME280;30778;53.574;7.770;2023-02-21T04:41:34;101570.28;;;6.56;60.30
45040;BME280;30778;53.574;7.770;2023-02-21T04:44:00;101567.09;;;6.26;61.19
45040;BME280;30778;53.574;7.770;2023-02-21T04:46:30;101562.59;;;6.46;60.47
45040;BME280;30778;53.574;7.770;2023-02-21T04:48:55;101565.31;;;6.36;60.71
45040;BME280;30778;53.574;7.770;2023-02-21T04:51:24;101557.53;;;6.36;60.45
45040;BME280;30778;53.574;7.770;2023-02-21T04:53:53;101560.25;;;6.22;60.86
45040;BME280;30778;53.574;7.770;2023-02-21T04:56:22;101567.34;;;6.03;61.63
45040;BME280;30778;53.574;7.770;2023-02-21T04:58:48;101555.28;;;6.00;61.79
45040;BME280;30778;53.574;7.770;2023-02-21T05:01:15;101562.69;;;6.37;60.77
45040;BME280;30778;53.574;7.770;2023-02-21T05:03:41;101565.22;;;6.43;60.55
45040;BME280;30778;53.574;7.770;2023-02-21T05:06:09;101564.25;;;6.50;60.15
45040;BME280;30778;53.574;7.770;2023-02-21T05:08:35;101569.59;;;6.40;60.46
45040;BME280;30778;53.574;7.770;2023-02-21T05:11:01;101566.13;;;6.39;60.29
45040;BME280;30778;53.574;7.770;2023-02-21T05:13:27;101565.44;;;6.20;61.37
45040;BME280;30778;53.574;7.770;2023-02-21T05:15:52;101565.28;;;6.37;60.64
45040;BME280;30778;53.574;7.770;2023-02-21T05:18:18;101568.72;;;6.39;60.60
45040;BME280;30778;53.574;7.770;2023-02-21T05:20:50;101564.50;;;6.26;60.80
45040;BME280;30778;53.574;7.770;2023-02-21T05:23:17;101571.56;;;6.15;61.49
45040;BME280;30778;53.574;7.770;2023-02-21T05:26:06;101571.59;;;6.12;61.40
45040;BME280;30778;53.574;7.770;2023-02-21T05:28:33;101568.91;;;6.22;61.13
45040;BME280;30778;53.574;7.770;2023-02-21T05:30:58;101566.84;;;6.52;60.35
45040;BME280;30778;53.574;7.770;2023-02-21T05:33:24;101569.72;;;6.29;60.68
45040;BME280;30778;53.574;7.770;2023-02-21T05:35:50;101570.47;;;6.37;60.75
45040;BME280;30778;53.574;7.770;2023-02-21T05:38:20;101570.44;;;6.42;60.36
45040;BME280;30778;53.574;7.770;2023-02-21T05:40:46;101568.81;;;6.32;61.02
45040;BME280;30778;53.574;7.770;2023-02-21T05:43:12;101568.00;;;6.25;60.81
45040;BME280;30778;53.574;7.770;2023-02-21T05:45:37;101567.09;;;6.27;60.67
45040;BME280;30778;53.574;7.770;2023-02-21T05:48:03;101571.41;;;6.33;60.49
45040;BME280;30778;53.574;7.770;2023-02-21T05:50:29;101567.81;;;6.43;60.50
45040;BME280;30778;53.574;7.770;2023-02-21T05:52:57;101577.69;;;6.07;61.63
45040;BME280;30778;53.574;7.770;2023-02-21T05:55:24;101575.66;;;6.37;60.87
45040;BME280;30778;53.574;7.770;2023-02-21T05:57:50;101572.16;;;6.43;60.57
45040;BME280;30778;53.574;7.770;2023-02-21T06:00:18;101572.94;;;6.49;60.27
45040;BME280;30778;53.574;7.770;2023-02-21T06:02:47;101572.34;;;6.21;61.04
45040;BME280;30778;53.574;7.770;2023-02-21T06:05:15;101565.84;;;5.82;62.12
45040;BME280;30778;53.574;7.770;2023-02-21T06:07:43;101569.78;;;6.20;61.37
45040;BME280;30778;53.574;7.770;2023-02-21T06:10:09;101581.41;;;5.79;62.28
45040;BME280;30778;53.574;7.770;2023-02-21T06:12:34;101572.25;;;6.35;60.54
45040;BME280;30778;53.574;7.770;2023-02-21T06:15:01;101572.16;;;6.43;60.55
45040;BME280;30778;53.574;7.770;2023-02-21T06:17:26;101585.41;;;6.14;60.79
45040;BME280;30778;53.574;7.770;2023-02-21T06:19:55;101581.13;;;6.08;61.17
45040;BME280;30778;53.574;7.770;2023-02-21T06:22:21;101575.09;;;6.11;60.88
45040;BME280;30778;53.574;7.770;2023-02-21T06:24:46;101588.06;;;6.07;61.41
45040;BME280;30778;53.574;7.770;2023-02-21T06:27:14;101582.88;;;6.11;61.10
45040;BME280;30778;53.574;7.770;2023-02-21T06:29:40;101577.47;;;6.27;60.53
45040;BME280;30778;53.574;7.770;2023-02-21T06:32:06;101580.47;;;5.89;61.89
45040;BME280;30778;53.574;7.770;2023-02-21T06:34:34;101587.22;;;6.05;61.28
45040;BME280;30778;53.574;7.770;2023-02-21T06:37:02;101587.06;;;6.24;60.28
45040;BME280;30778;53.574;7.770;2023-02-21T06:39:27;101583.78;;;6.06;61.03
45040;BME280;30778;53.574;7.770;2023-02-21T06:41:52;101586.63;;;5.76;62.18
45040;BME280;30778;53.574;7.770;2023-02-21T06:44:18;101583.16;;;5.78;61.86
45040;BME280;30778;53.574;7.770;2023-02-21T06:46:44;101585.91;;;5.57;62.36
45040;BME280;30778;53.574;7.770;2023-02-21T06:49:11;101585.44;;;6.12;61.03
45040;BME280;30778;53.574;7.770;2023-02-21T06:51:39;101588.06;;;6.11;60.76
45040;BME280;30778;53.574;7.770;2023-02-21T06:54:07;101587.28;;;5.99;60.97
45040;BME280;30778;53.574;7.770;2023-02-21T06:56:32;101592.47;;;6.01;61.31
45040;BME280;30778;53.574;7.770;2023-02-21T06:58:58;101594.00;;;6.20;60.71
45040;BME280;30778;53.574;7.770;2023-02-21T07:01:28;101593.06;;;6.31;60.18
45040;BME280;30778;53.574;7.770;2023-02-21T07:03:57;101589.41;;;6.48;59.78
45040;BME280;30778;53.574;7.770;2023-02-21T07:06:23;101591.38;;;6.25;60.57
45040;BME280;30778;53.574;7.770;2023-02-21T07:08:51;101589.91;;;5.95;61.33
45040;BME280;30778;53.574;7.770;2023-02-21T07:11:17;101596.03;;;5.87;61.54
45040;BME280;30778;53.574;7.770;2023-02-21T07:13:49;101589.63;;;6.28;60.60
45040;BME280;30778;53.574;7.770;2023-02-21T07:16:16;101589.63;;;6.28;60.71
45040;BME280;30778;53.574;7.770;2023-02-21T07:18:47;101591.47;;;6.16;61.06
45040;BME280;30778;53.574;7.770;2023-02-21T07:21:14;101598.25;;;6.32;60.63
45040;BME280;30778;53.574;7.770;2023-02-21T07:23:42;101595.63;;;6.35;60.43
45040;BME280;30778;53.574;7.770;2023-02-21T07:26:07;101602.47;;;6.42;60.18
45040;BME280;30778;53.574;7.770;2023-02-21T07:28:33;101600.03;;;6.28;60.19
45040;BME280;30778;53.574;7.770;2023-02-21T07:30:59;101601.78;;;6.20;60.75
45040;BME280;30778;53.574;7.770;2023-02-21T07:33:27;101597.38;;;6.33;60.26
45040;BME280;30778;53.574;7.770;2023-02-21T07:35:53;101604.84;;;6.59;60.03
45040;BME280;30778;53.574;7.770;2023-02-21T07:38:22;101605.91;;;6.41;60.44
45040;BME280;30778;53.574;7.770;2023-02-21T07:40:48;101612.63;;;6.61;59.82
45040;BME280;30778;53.574;7.770;2023-02-21T07:43:14;101620.53;;;6.53;59.63
45040;BME280;30778;53.574;7.770;2023-02-21T07:45:42;101622.41;;;6.39;60.05
45040;BME280;30778;53.574;7.770;2023-02-21T07:48:08;101623.09;;;6.55;59.94
45040;BME280;30778;53.574;7.770;2023-02-21T07:50:34;101620.13;;;6.85;59.14
45040;BME280;30778;53.574;7.770;2023-02-21T07:53:02;101629.19;;;6.54;59.85
45040;BME280;30778;53.574;7.770;2023-02-21T07:55:33;101628.44;;;6.39;60.23
45040;BME280;30778;53.574;7.770;2023-02-21T07:57:59;101626.47;;;6.63;60.02
45040;BME280;30778;53.574;7.770;2023-02-21T08:00:25;101631.84;;;6.47;59.86
45040;BME280;30778;53.574;7.770;2023-02-21T08:02:51;101636.16;;;6.48;59.86
45040;BME280;30778;53.574;7.770;2023-02-21T08:05:18;101635.75;;;5.97;61.28
45040;BME280;30778;53.574;7.770;2023-02-21T08:07:54;101639.63;;;6.47;60.29
45040;BME280;30778;53.574;7.770;2023-02-21T08:10:25;101635.09;;;6.66;59.82
45040;BME280;30778;53.574;7.770;2023-02-21T08:12:51;101638.50;;;6.73;59.56
45040;BME280;30778;53.574;7.770;2023-02-21T08:15:19;101642.47;;;6.17;60.87
45040;BME280;30778;53.574;7.770;2023-02-21T08:17:48;101649.50;;;6.05;61.64
45040;BME280;30778;53.574;7.770;2023-02-21T08:20:14;101659.06;;;6.00;61.62
45040;BME280;30778;53.574;7.770;2023-02-21T08:22:40;101659.25;;;5.77;62.36
45040;BME280;30778;53.574;7.770;2023-02-21T08:25:05;101651.91;;;6.27;60.89
45040;BME280;30778;53.574;7.770;2023-02-21T08:27:31;101662.47;;;6.05;61.69
45040;BME280;30778;53.574;7.770;2023-02-21T08:29:58;101654.00;;;5.86;61.86
45040;BME280;30778;53.574;7.770;2023-02-21T08:32:24;101668.31;;;6.35;60.74
45040;BME280;30778;53.574;7.770;2023-02-21T08:34:50;101661.28;;;6.46;60.77
45040;BME280;30778;53.574;7.770;2023-02-21T08:37:16;101667.13;;;6.65;60.19
45040;BME280;30778;53.574;7.770;2023-02-21T08:39:48;101667.50;;;6.25;60.95
45040;BME280;30778;53.574;7.770;2023-02-21T08:42:15;101665.00;;;6.15;61.18
45040;BME280;30778;53.574;7.770;2023-02-21T08:44:47;101667.53;;;6.22;60.97
45040;BME280;30778;53.574;7.770;2023-02-21T08:47:14;101671.13;;;6.06;61.16
45040;BME280;30778;53.574;7.770;2023-02-21T08:49:46;101667.38;;;6.41;60.80
45040;BME280;30778;53.574;7.770;2023-02-21T08:52:13;101670.63;;;6.64;60.22
45040;BME280;30778;53.574;7.770;2023-02-21T08:54:41;101673.75;;;6.94;59.45
45040;BME280;30778;53.574;7.770;2023-02-21T08:57:06;101670.00;;;6.39;60.87
45040;BME280;30778;53.574;7.770;2023-02-21T08:59:32;101673.13;;;6.74;60.13
45040;BME280;30778;53.574;7.770;2023-02-21T09:02:00;101674.06;;;6.66;60.36
45040;BME280;30778;53.574;7.770;2023-02-21T09:04:28;101681.03;;;6.61;59.83
45040;BME280;30778;53.574;7.770;2023-02-21T09:06:55;101677.13;;;7.02;59.35
45040;BME280;30778;53.574;7.770;2023-02-21T09:09:21;101682.63;;;6.76;59.58
45040;BME280;30778;53.574;7.770;2023-02-21T09:11:50;101685.44;;;6.55;60.08
45040;BME280;30778;53.574;7.770;2023-02-21T09:14:15;101685.66;;;6.27;60.89
45040;BME280;30778;53.574;7.770;2023-02-21T09:16:41;101683.53;;;6.70;60.09
45040;BME280;30778;53.574;7.770;2023-02-21T09:19:08;101680.66;;;6.95;59.36
45040;BME280;30778;53.574;7.770;2023-02-21T09:21:34;101678.75;;;7.09;58.48
45040;BME280;30778;53.574;7.770;2023-02-21T09:24:00;101687.59;;;6.95;58.67
45040;BME280;30778;53.574;7.770;2023-02-21T09:26:27;101676.41;;;6.89;58.79
45040;BME280;30778;53.574;7.770;2023-02-21T09:28:57;101675.38;;;7.00;58.52
45040;BME280;30778;53.574;7.770;2023-02-21T09:31:23;101682.38;;;6.98;58.71
45040;BME280;30778;53.574;7.770;2023-02-21T09:33:48;101681.34;;;7.09;58.81
45040;BME280;30778;53.574;7.770;2023-02-21T09:36:14;101682.44;;;6.91;59.22
45040;BME280;30778;53.574;7.770;2023-02-21T09:38:40;101683.19;;;7.00;59.15
45040;BME280;30778;53.574;7.770;2023-02-21T09:41:08;101671.03;;;7.05;59.05
45040;BME280;30778;53.574;7.770;2023-02-21T09:43:40;101674.56;;;6.98;59.47
45040;BME280;30778;53.574;7.770;2023-02-21T09:46:13;101679.91;;;6.87;58.84
45040;BME280;30778;53.574;7.770;2023-02-21T09:48:43;101684.19;;;7.59;57.47
45040;BME280;30778;53.574;7.770;2023-02-21T09:51:10;101688.78;;;7.37;58.06
45040;BME280;30778;53.574;7.770;2023-02-21T09:53:40;101683.91;;;7.12;58.48
45040;BME280;30778;53.574;7.770;2023-02-21T09:56:26;101686.31;;;7.26;58.14
45040;BME280;30778;53.574;7.770;2023-02-21T09:58:55;101686.25;;;7.34;57.74
45040;BME280;30778;53.574;7.770;2023-02-21T10:04:27;101687.66;;;6.88;58.50
45040;BME280;30778;53.574;7.770;2023-02-21T10:07:14;101696.13;;;7.06;58.70
45040;BME280;30778;53.574;7.770;2023-02-21T10:09:55;101691.41;;;6.63;60.10
45040;BME280;30778;53.574;7.770;2023-02-21T10:12:29;101701.47;;;6.94;59.24
45040;BME280;30778;53.574;7.770;2023-02-21T10:23:34;101691.50;;;7.29;58.03
45040;BME280;30778;53.574;7.770;2023-02-21T10:26:07;101693.50;;;7.09;58.49
45040;BME280;30778;53.574;7.770;2023-02-21T10:28:36;101700.75;;;6.82;59.21
45040;BME280;30778;53.574;7.770;2023-02-21T10:31:17;101707.69;;;7.51;57.49
45040;BME280;30778;53.574;7.770;2023-02-21T10:33:46;101710.41;;;7.41;57.58
45040;BME280;30778;53.574;7.770;2023-02-21T10:36:16;101705.16;;;7.47;57.05
45040;BME280;30778;53.574;7.770;2023-02-21T10:39:09;101705.38;;;7.28;57.68
45040;BME280;30778;53.574;7.770;2023-02-21T10:41:41;101712.31;;;7.28;58.11
45040;BME280;30778;53.574;7.770;2023-02-21T10:44:13;101710.34;;;7.47;57.43
45040;BME280;30778;53.574;7.770;2023-02-21T10:46:46;101709.63;;;7.36;57.62
45040;BME280;30778;53.574;7.770;2023-02-21T10:49:21;101712.31;;;7.29;57.71
45040;BME280;30778;53.574;7.770;2023-02-21T10:52:05;101710.03;;;7.71;57.28
45040;BME280;30778;53.574;7.770;2023-02-21T10:54:31;101715.72;;;7.98;56.50
45040;BME280;30778;53.574;7.770;2023-02-21T10:56:58;101703.72;;;8.39;56.13
45040;BME280;30778;53.574;7.770;2023-02-21T10:59:27;101716.34;;;8.11;55.97
45040;BME280;30778;53.574;7.770;2023-02-21T11:01:55;101718.16;;;8.07;56.05
45040;BME280;30778;53.574;7.770;2023-02-21T11:04:22;101716.03;;;8.31;55.82
45040;BME280;30778;53.574;7.770;2023-02-21T11:07:09;101718.41;;;7.92;56.11
45040;BME280;30778;53.574;7.770;2023-02-21T11:09:41;101724.28;;;8.03;56.18
45040;BME280;30778;53.574;7.770;2023-02-21T11:17:20;101721.31;;;7.70;57.15
45040;BME280;30778;53.574;7.770;2023-02-21T11:20:24;101724.53;;;7.21;57.71
45040;BME280;30778;53.574;7.770;2023-02-21T11:22:50;101731.41;;;7.25;57.62
45040;BME280;30778;53.574;7.770;2023-02-21T11:25:28;101723.75;;;7.13;57.71
45040;BME280;30778;53.574;7.770;2023-02-21T11:28:06;101724.59;;;7.15;57.88
45040;BME280;30778;53.574;7.770;2023-02-21T11:31:04;101733.13;;;7.28;57.58
45040;BME280;30778;53.574;7.770;2023-02-21T11:33:31;101723.28;;;7.51;57.13
45040;BME280;30778;53.574;7.770;2023-02-21T11:36:15;101733.66;;;7.56;57.35
45040;BME280;30778;53.574;7.770;2023-02-21T11:41:28;101724.09;;;7.58;56.58
45040;BME280;30778;53.574;7.770;2023-02-21T11:43:55;101717.78;;;7.74;56.96
45040;BME280;30778;53.574;7.770;2023-02-21T11:46:41;101724.44;;;7.94;56.44
45040;BME280;30778;53.574;7.770;2023-02-21T11:50:22;101706.91;;;8.04;56.14
45040;BME280;30778;53.574;7.770;2023-02-21T11:53:17;101722.06;;;8.31;55.65
45040;BME280;30778;53.574;7.770;2023-02-21T11:55:58;101714.72;;;8.56;54.40
45040;BME280;30778;53.574;7.770;2023-02-21T12:01:28;101713.69;;;8.65;54.03
45040;BME280;30778;53.574;7.770;2023-02-21T12:06:29;101710.44;;;8.54;54.81
45040;BME280;30778;53.574;7.770;2023-02-21T12:09:24;101704.16;;;8.63;54.17
45040;BME280;30778;53.574;7.770;2023-02-21T12:12:13;101702.91;;;8.85;53.58
45040;BME280;30778;53.574;7.770;2023-02-21T12:20:07;101687.69;;;9.07;52.72
45040;BME280;30778;53.574;7.770;2023-02-21T12:27:47;101684.94;;;9.15;52.88
45040;BME280;30778;53.574;7.770;2023-02-21T12:36:02;101677.34;;;9.03;52.69
45040;BME280;30778;53.574;7.770;2023-02-21T12:46:38;101670.63;;;8.92;53.36
45040;BME280;30778;53.574;7.770;2023-02-21T12:49:15;101674.31;;;8.81;53.81
45040;BME280;30778;53.574;7.770;2023-02-21T12:51:50;101675.69;;;8.02;55.09
45040;BME280;30778;53.574;7.770;2023-02-21T12:54:28;101675.03;;;8.87;53.88
45040;BME280;30778;53.574;7.770;2023-02-21T12:57:16;101672.50;;;8.86;52.71
45040;BME280;30778;53.574;7.770;2023-02-21T13:00:02;101678.66;;;9.24;53.20
45040;BME280;30778;53.574;7.770;2023-02-21T13:03:04;101671.25;;;9.04;53.58
45040;BME280;30778;53.574;7.770;2023-02-21T13:06:24;101664.59;;;8.89;53.29
45040;BME280;30778;53.574;7.770;2023-02-21T13:11:25;101672.50;;;8.86;53.26
45040;BME280;30778;53.574;7.770;2023-02-21T13:13:52;101665.06;;;8.63;53.92
45040;BME280;30778;53.574;7.770;2023-02-21T13:16:17;101660.50;;;8.77;53.19
45040;BME280;30778;53.574;7.770;2023-02-21T13:18:52;101663.88;;;8.81;52.78
45040;BME280;30778;53.574;7.770;2023-02-21T13:23:58;101658.66;;;8.82;53.07
45040;BME280;30778;53.574;7.770;2023-02-21T13:30:11;101661.19;;;8.39;54.06
45040;BME280;30778;53.574;7.770;2023-02-21T13:32:39;101663.22;;;8.23;54.36
45040;BME280;30778;53.574;7.770;2023-02-21T13:35:09;101656.72;;;8.45;53.59
45040;BME280;30778;53.574;7.770;2023-02-21T13:37:43;101649.38;;;8.21;54.62
45040;BME280;30778;53.574;7.770;2023-02-21T13:40:42;101653.69;;;8.67;53.62
45040;BME280;30778;53.574;7.770;2023-02-21T13:43:19;101644.88;;;8.75;52.92
45040;BME280;30778;53.574;7.770;2023-02-21T13:45:47;101649.22;;;8.28;53.98
45040;BME280;30778;53.574;7.770;2023-02-21T13:48:36;101642.69;;;8.54;53.82
45040;BME280;30778;53.574;7.770;2023-02-21T13:51:02;101642.41;;;8.68;53.17
45040;BME280;30778;53.574;7.770;2023-02-21T13:53:31;101641.69;;;8.60;53.12
45040;BME280;30778;53.574;7.770;2023-02-21T13:58:35;101632.91;;;8.65;52.81
45040;BME280;30778;53.574;7.770;2023-02-21T14:03:54;101634.69;;;8.17;54.19
45040;BME280;30778;53.574;7.770;2023-02-21T14:06:34;101628.59;;;8.63;53.40
45040;BME280;30778;53.574;7.770;2023-02-21T14:09:08;101631.53;;;9.31;52.46
45040;BME280;30778;53.574;7.770;2023-02-21T14:11:45;101622.84;;;9.31;51.48
45040;BME280;30778;53.574;7.770;2023-02-21T14:14:22;101629.72;;;9.35;51.35
45040;BME280;30778;53.574;7.770;2023-02-21T14:16:53;101630.00;;;8.81;52.23
45040;BME280;30778;53.574;7.770;2023-02-21T14:19:24;101625.72;;;9.18;51.83
45040;BME280;30778;53.574;7.770;2023-02-21T14:22:01;101632.88;;;9.09;52.03
45040;BME280;30778;53.574;7.770;2023-02-21T14:24:34;101633.78;;;8.18;53.88
45040;BME280;30778;53.574;7.770;2023-02-21T14:32:34;101644.28;;;8.60;53.35
45040;BME280;30778;53.574;7.770;2023-02-21T14:37:45;101637.88;;;8.31;53.82
45040;BME280;30778;53.574;7.770;2023-02-21T14:43:13;101638.38;;;8.05;55.12
45040;BME280;30778;53.574;7.770;2023-02-21T15:04:59;101622.78;;;8.50;53.72
45040;BME280;30778;53.574;7.770;2023-02-21T15:10:20;101634.78;;;8.57;53.42
45040;BME280;30778;53.574;7.770;2023-02-21T15:13:01;101631.88;;;8.27;54.12
45040;BME280;30778;53.574;7.770;2023-02-21T15:18:02;101628.91;;;8.47;53.88
45040;BME280;30778;53.574;7.770;2023-02-21T15:20:32;101629.41;;;8.65;53.38
45040;BME280;30778;53.574;7.770;2023-02-21T15:23:16;101631.53;;;8.47;54.22
45040;BME280;30778;53.574;7.770;2023-02-21T15:25:52;101637.13;;;8.24;54.33
45040;BME280;30778;53.574;7.770;2023-02-21T15:28:23;101635.63;;;8.11;54.89
45040;BME280;30778;53.574;7.770;2023-02-21T15:33:23;101628.38;;;8.30;54.88
45040;BME280;30778;53.574;7.770;2023-02-21T15:35:56;101630.34;;;8.15;54.93
45040;BME280;30778;53.574;7.770;2023-02-21T15:41:07;101631.53;;;8.47;54.30
45040;BME280;30778;53.574;7.770;2023-02-21T15:43:40;101631.13;;;8.67;53.81
45040;BME280;30778;53.574;7.770;2023-02-21T15:46:13;101633.69;;;8.69;53.65
45040;BME280;30778;53.574;7.770;2023-02-21T15:48:42;101631.25;;;8.60;53.70
45040;BME280;30778;53.574;7.770;2023-02-21T15:51:09;101630.03;;;8.32;54.21
45040;BME280;30778;53.574;7.770;2023-02-21T15:53:35;101636.72;;;8.47;53.92
45040;BME280;30778;53.574;7.770;2023-02-21T15:56:26;101640.16;;;8.01;54.68